Time;durP1;ratioP1;P1;durP2;ratioP2;P2;SDS_P1;SDS_P2;PMS_P1;PMS_P2;Temp;Humidity;BMP_temperature;BMP_pressure;BME280_temperature;BME280_humidity;BME280_pressure;Samples;Min_cycle;Max_cycle;Signal;HPM_P1;HPM_P2
2022/02/16 00:02:03;;;;;;;2.20;2.00;;;;;;;2.82;100.00;100180.69;5025368;28;20196;-74
2022/02/16 00:04:29;;;;;;;2.50;2.20;;;;;;;2.86;100.00;100179.81;5014382;28;20200;-74
2022/02/16 00:06:56;;;;;;;3.33;1.93;;;;;;;2.81;100.00;100172.09;5021632;28;20217;-74
2022/02/16 00:09:22;;;;;;;3.63;2.10;;;;;;;2.86;100.00;100166.94;5021918;28;20701;-77
2022/02/16 00:11:50;;;;;;;2.60;2.10;;;;;;;2.87;100.00;100160.94;5021827;28;20213;-75
2022/02/16 00:14:16;;;;;;;4.00;2.17;;;;;;;2.93;100.00;100154.91;5029188;28;20200;-73
2022/02/16 00:16:44;;;;;;;2.47;1.87;;;;;;;2.94;100.00;100147.19;5021067;28;20758;-74
2022/02/16 00:19:10;;;;;;;3.83;2.40;;;;;;;2.97;100.00;100139.44;5017053;28;20858;-74
2022/02/16 00:21:36;;;;;;;2.43;2.17;;;;;;;3.06;100.00;100136.00;5029063;28;20215;-74
2022/02/16 00:24:04;;;;;;;4.50;2.40;;;;;;;3.00;100.00;100136.84;5023339;28;20319;-74
2022/02/16 00:26:30;;;;;;;3.37;2.03;;;;;;;3.06;100.00;100128.25;5021473;28;20220;-74
2022/02/16 00:28:58;;;;;;;3.07;2.27;;;;;;;3.05;100.00;100130.84;5022136;28;20201;-75
2022/02/16 00:31:25;;;;;;;2.60;2.00;;;;;;;3.00;100.00;100131.69;5014251;28;20228;-74
2022/02/16 00:33:51;;;;;;;3.23;2.37;;;;;;;3.03;100.00;100125.69;5014106;28;20717;-73
2022/02/16 00:36:18;;;;;;;4.30;1.90;;;;;;;2.97;100.00;100115.38;5023353;28;20601;-74
2022/02/16 00:38:44;;;;;;;2.80;1.80;;;;;;;2.91;100.00;100116.28;5012029;28;20220;-75
2022/02/16 00:41:11;;;;;;;2.63;2.00;;;;;;;2.98;100.00;100123.13;5025707;28;20227;-74
2022/02/16 00:43:37;;;;;;;3.30;2.30;;;;;;;3.07;100.00;100127.38;5012578;28;20280;-75
2022/02/16 00:46:06;;;;;;;3.77;2.50;;;;;;;3.08;100.00;100125.66;5027999;28;20215;-74
2022/02/16 00:48:33;;;;;;;3.20;2.17;;;;;;;3.13;100.00;100122.22;5025152;28;20277;-74
2022/02/16 00:50:59;;;;;;;2.33;1.77;;;;;;;3.08;100.00;100115.34;5016163;28;20335;-74
2022/02/16 00:53:25;;;;;;;4.23;1.90;;;;;;;3.08;100.00;100120.50;5020278;28;21029;-75
2022/02/16 00:55:52;;;;;;;2.40;1.80;;;;;;;3.09;100.00;100111.94;5020503;28;20204;-73
2022/02/16 00:58:18;;;;;;;2.73;2.33;;;;;;;3.09;100.00;100111.94;5014433;28;20213;-75
2022/02/16 01:00:47;;;;;;;4.70;2.07;;;;;;;3.07;100.00;100103.34;5022083;28;20234;-74
2022/02/16 01:03:15;;;;;;;3.27;2.40;;;;;;;3.10;100.00;100109.34;5024975;28;20630;-74
2022/02/16 01:05:45;;;;;;;3.13;2.00;;;;;;;3.15;100.00;100101.59;5021280;28;20203;-74
2022/02/16 01:08:12;;;;;;;2.67;2.10;;;;;;;3.15;100.00;100096.44;5025940;28;20219;-74
2022/02/16 01:10:41;;;;;;;5.57;1.90;;;;;;;3.16;99.65;100099.00;5020308;28;20271;-74
2022/02/16 01:13:08;;;;;;;1.93;1.70;;;;;;;3.15;99.75;100091.28;5025978;28;20209;-74
2022/02/16 01:15:37;;;;;;;4.97;2.07;;;;;;;3.15;99.42;100094.72;5036957;28;20215;-75
2022/02/16 01:18:04;;;;;;;3.83;2.20;;;;;;;3.17;99.64;100102.47;5017459;28;20265;-75
2022/02/16 01:20:36;;;;;;;4.23;2.20;;;;;;;3.18;99.33;100102.47;5036200;28;20314;-73
2022/02/16 01:23:13;;;;;;;3.10;2.23;;;;;;;3.14;99.31;100089.59;5021147;28;20220;-74
2022/02/16 01:25:42;;;;;;;4.37;1.80;;;;;;;3.16;98.19;100085.28;5025678;28;20704;-75
2022/02/16 01:28:17;;;;;;;2.57;1.90;;;;;;;3.16;98.42;100080.13;5028405;28;20281;-74
2022/02/16 01:30:44;;;;;;;3.73;1.70;;;;;;;3.18;97.50;100088.69;5019029;28;20238;-74
2022/02/16 01:33:21;;;;;;;3.37;2.17;;;;;;;3.19;97.42;100073.25;5019962;28;20753;-74
2022/02/16 01:35:52;;;;;;;3.50;1.90;;;;;;;3.16;97.53;100073.25;5018751;28;20203;-74
2022/02/16 01:38:20;;;;;;;5.27;2.00;;;;;;;3.21;97.04;100071.50;5018264;28;20267;-76
2022/02/16 01:40:55;;;;;;;3.70;1.80;;;;;;;3.21;96.62;100065.50;5026428;28;20212;-73
2022/02/16 01:43:22;;;;;;;4.20;2.00;;;;;;;3.25;96.47;100067.19;5023707;28;20284;-73
2022/02/16 01:45:51;;;;;;;3.20;1.73;;;;;;;3.22;96.66;100050.03;5029970;28;20196;-75
2022/02/16 01:48:22;;;;;;;3.20;1.87;;;;;;;3.17;97.17;100059.50;5028926;28;20231;-74
2022/02/16 01:50:48;;;;;;;2.63;1.60;;;;;;;3.17;96.80;100056.09;5015102;28;20723;-74
2022/02/16 01:53:25;;;;;;;2.63;1.80;;;;;;;3.20;96.19;100054.34;5018483;28;20209;-74
2022/02/16 01:55:52;;;;;;;3.03;1.87;;;;;;;3.20;96.54;100045.75;5031659;28;20204;-75
2022/02/16 01:58:19;;;;;;;3.10;1.70;;;;;;;3.25;95.79;100038.84;5045004;28;20614;-75
2022/02/16 02:01:06;;;;;;;2.33;1.80;;;;;;;3.31;94.79;100035.41;5027096;28;21006;-75
2022/02/16 02:03:33;;;;;;;2.27;1.73;;;;;;;3.32;94.31;100030.22;5023350;28;20200;-74
2022/02/16 02:06:07;;;;;;;2.77;1.57;;;;;;;3.28;95.01;100027.69;5020302;28;20230;-73
2022/02/16 02:08:36;;;;;;;3.33;1.90;;;;;;;3.31;94.57;100025.09;5025750;28;20232;-73
2022/02/16 02:11:03;;;;;;;2.60;1.57;;;;;;;3.31;94.65;100020.78;5016045;28;20227;-76
2022/02/16 02:13:30;;;;;;;3.73;1.70;;;;;;;3.32;94.94;100008.75;5032693;28;20238;-73
2022/02/16 02:16:03;;;;;;;3.73;1.67;;;;;;;3.36;94.12;100011.31;5010561;28;20208;-74
2022/02/16 02:18:32;;;;;;;1.73;1.60;;;;;;;3.38;93.91;100013.88;5010515;28;20251;-74
2022/02/16 02:21:00;;;;;;;2.50;1.50;;;;;;;3.42;93.95;100008.69;5017003;28;20235;-74
2022/02/16 02:23:27;;;;;;;2.77;1.47;;;;;;;3.39;94.39;100001.00;5021290;28;20223;-76
2022/02/16 02:25:55;;;;;;;3.20;1.50;;;;;;;3.45;93.43;100002.66;5027712;28;20283;-74
2022/02/16 02:28:23;;;;;;;3.57;1.67;;;;;;;3.48;93.38;100002.63;5023229;28;20219;-76
2022/02/16 02:30:51;;;;;;;1.93;1.40;;;;;;;3.48;93.46;100002.63;5016821;28;20765;-74
2022/02/16 02:33:20;;;;;;;2.43;1.30;;;;;;;3.47;93.65;99992.34;5018187;28;20197;-77
2022/02/16 02:35:52;;;;;;;2.17;1.70;;;;;;;3.49;93.16;99988.88;5011916;28;20208;-74
2022/02/16 02:38:22;;;;;;;3.70;1.60;;;;;;;3.50;93.32;99982.00;5021589;28;20545;-74
2022/02/16 02:40:52;;;;;;;3.17;1.60;;;;;;;3.50;92.97;99972.56;5014718;28;20248;-75
2022/02/16 02:43:20;;;;;;;3.57;1.40;;;;;;;3.47;93.19;99974.31;5027150;28;20283;-75
2022/02/16 02:45:46;;;;;;;1.53;1.30;;;;;;;3.47;92.86;99975.16;5017003;28;20800;-75
2022/02/16 02:48:12;;;;;;;1.60;1.37;;;;;;;3.48;92.75;99966.53;5023926;28;20704;-74
2022/02/16 02:50:40;;;;;;;1.70;1.60;;;;;;;3.50;93.09;99964.81;5015974;28;20301;-75
2022/02/16 02:53:06;;;;;;;2.13;1.40;;;;;;;3.51;93.43;99963.94;5028454;28;20316;-75
2022/02/16 02:55:34;;;;;;;2.07;1.37;;;;;;;3.54;93.21;99963.94;5024608;28;20203;-74
2022/02/16 02:58:01;;;;;;;3.40;1.60;;;;;;;3.54;93.75;99963.06;5024070;28;20206;-75
2022/02/16 03:00:27;;;;;;;1.77;1.40;;;;;;;3.56;93.90;99962.19;5016175;28;20337;-74
2022/02/16 03:02:56;;;;;;;2.80;1.60;;;;;;;3.58;93.86;99962.19;5013231;28;20200;-74
2022/02/16 03:05:22;;;;;;;2.37;1.20;;;;;;;3.62;94.10;99958.69;5020797;28;20692;-74
2022/02/16 03:07:50;;;;;;;2.77;1.20;;;;;;;3.57;95.32;99956.19;5020528;28;20319;-74
2022/02/16 03:10:17;;;;;;;1.73;1.10;;;;;;;3.55;95.98;99955.34;5022886;28;20631;-75
2022/02/16 03:12:45;;;;;;;2.17;1.50;;;;;;;3.57;96.66;99951.03;5016835;28;20209;-75
2022/02/16 03:15:13;;;;;;;3.53;1.50;;;;;;;3.56;97.53;99938.97;5028268;28;20204;-74
2022/02/16 03:17:44;;;;;;;2.30;1.53;;;;;;;3.53;98.54;99933.00;5018815;28;20214;-74
2022/02/16 03:20:11;;;;;;;1.60;1.47;;;;;;;3.52;99.08;99933.88;5014439;28;20239;-74
2022/02/16 03:22:38;;;;;;;2.73;1.70;;;;;;;3.50;100.00;99925.28;5028743;28;20241;-74
2022/02/16 03:25:06;;;;;;;2.33;1.50;;;;;;;3.46;100.00;99923.63;5018393;28;20674;-74
2022/02/16 03:27:32;;;;;;;3.40;1.47;;;;;;;3.42;100.00;99921.06;5009167;28;20218;-74
2022/02/16 03:30:08;;;;;;;5.97;1.53;;;;;;;3.38;100.00;99909.06;5018921;28;20216;-72
2022/02/16 03:32:40;;;;;;;3.23;1.57;;;;;;;3.37;100.00;99912.50;5035321;28;20291;-74
2022/02/16 03:35:07;;;;;;;2.20;1.47;;;;;;;3.34;100.00;99902.25;5019773;28;20207;-74
2022/02/16 03:37:34;;;;;;;3.40;1.60;;;;;;;3.32;100.00;99905.69;5018599;28;20193;-72
2022/02/16 03:40:04;;;;;;;1.70;1.60;;;;;;;3.29;100.00;99897.97;5020720;28;20706;-74
2022/02/16 03:42:32;;;;;;;2.67;1.43;;;;;;;3.27;100.00;99902.28;5019296;28;20286;-73
2022/02/16 03:44:58;;;;;;;2.50;1.80;;;;;;;3.26;100.00;99898.84;5015071;28;20206;-74
2022/02/16 03:47:35;;;;;;;3.93;1.90;;;;;;;3.23;100.00;99892.00;5023955;28;20208;-75
2022/02/16 03:50:01;;;;;;;1.93;1.30;;;;;;;3.19;100.00;99885.16;5021586;28;20220;-76
2022/02/16 03:52:29;;;;;;;1.73;1.37;;;;;;;3.15;100.00;99886.06;5024035;28;20222;-74
2022/02/16 03:54:56;;;;;;;5.57;1.50;;;;;;;3.13;100.00;99885.22;5017877;28;20669;-73
2022/02/16 03:57:23;;;;;;;1.87;1.40;;;;;;;3.12;100.00;99883.50;5030306;28;20917;-74
2022/02/16 03:59:49;;;;;;;1.70;1.60;;;;;;;3.12;100.00;99875.78;5022614;28;20220;-74
2022/02/16 04:02:24;;;;;;;2.87;1.80;;;;;;;3.10;100.00;99877.50;5016236;28;20269;-73
2022/02/16 04:04:52;;;;;;;3.87;1.50;;;;;;;3.06;100.00;99870.69;5015243;28;20686;-75
2022/02/16 04:07:21;;;;;;;2.83;1.60;;;;;;;3.04;100.00;99864.66;5021254;28;20192;-74
2022/02/16 04:09:47;;;;;;;2.33;1.67;;;;;;;3.01;100.00;99862.97;5023176;28;20231;-74
2022/02/16 04:12:14;;;;;;;3.53;1.57;;;;;;;3.01;100.00;99846.69;5023555;28;20203;-74
2022/02/16 04:14:41;;;;;;;1.60;1.50;;;;;;;3.04;100.00;99846.63;5022090;28;20214;-74
2022/02/16 04:17:07;;;;;;;3.77;1.60;;;;;;;3.04;100.00;99844.06;5013855;28;20212;-74
2022/02/16 04:19:34;;;;;;;2.10;1.70;;;;;;;3.01;100.00;99836.38;5024942;28;20220;-74
2022/02/16 04:22:02;;;;;;;3.30;1.83;;;;;;;3.05;100.00;99835.47;5016444;28;20664;-75
2022/02/16 04:24:29;;;;;;;3.50;1.53;;;;;;;3.08;100.00;99835.47;5022742;28;20859;-75
2022/02/16 04:26:55;;;;;;;2.17;1.43;;;;;;;3.12;100.00;99833.72;5022519;28;20314;-74
2022/02/16 04:29:24;;;;;;;2.93;1.87;;;;;;;3.15;100.00;99825.94;5021294;28;20227;-75
2022/02/16 04:31:50;;;;;;;2.50;1.60;;;;;;;3.16;100.00;99825.09;5017150;28;20624;-75
2022/02/16 04:34:16;;;;;;;2.63;1.60;;;;;;;3.17;100.00;99819.94;5022930;28;20200;-74
2022/02/16 04:36:43;;;;;;;1.77;1.60;;;;;;;3.20;100.00;99811.28;5016045;28;20204;-74
2022/02/16 04:39:15;;;;;;;2.47;1.50;;;;;;;3.23;100.00;99814.69;5023803;28;20270;-74
2022/02/16 04:41:42;;;;;;;3.57;1.73;;;;;;;3.23;100.00;99809.53;5019788;28;20207;-74
2022/02/16 04:44:12;;;;;;;2.37;1.77;;;;;;;3.31;100.00;99808.66;5027451;28;20238;-75
2022/02/16 04:46:44;;;;;;;2.37;1.47;;;;;;;3.33;100.00;99806.91;5023526;28;20673;-75
2022/02/16 04:49:11;;;;;;;2.07;1.80;;;;;;;3.35;100.00;99802.59;5026448;28;20242;-73
2022/02/16 04:51:38;;;;;;;2.30;1.60;;;;;;;3.34;100.00;99799.16;5023115;28;20941;-75
2022/02/16 04:54:05;;;;;;;3.07;1.60;;;;;;;3.36;100.00;99796.56;5023792;28;20200;-74
2022/02/16 04:56:32;;;;;;;4.13;1.67;;;;;;;3.38;100.00;99797.41;5026556;28;20209;-75
2022/02/16 04:58:59;;;;;;;3.13;1.50;;;;;;;3.39;100.00;99791.38;5019677;28;20197;-74
2022/02/16 05:01:25;;;;;;;4.63;2.10;;;;;;;3.39;100.00;99786.22;5022280;28;20451;-75
2022/02/16 05:03:56;;;;;;;3.17;1.90;;;;;;;3.37;100.00;99783.66;5020706;28;20984;-73
2022/02/16 05:06:23;;;;;;;3.63;1.40;;;;;;;3.37;100.00;99783.66;5027108;28;20209;-75
2022/02/16 05:08:50;;;;;;;5.03;1.80;;;;;;;3.35;100.00;99775.09;5028889;28;20216;-74
2022/02/16 05:11:17;;;;;;;3.30;1.93;;;;;;;3.34;100.00;99775.09;5021498;28;20255;-74
2022/02/16 05:13:59;;;;;;;3.63;1.70;;;;;;;3.33;100.00;99768.25;5021064;28;20211;-74
2022/02/16 05:16:27;;;;;;;2.53;1.70;;;;;;;3.32;100.00;99769.13;5020832;28;20224;-74
2022/02/16 05:18:55;;;;;;;2.67;1.70;;;;;;;3.33;100.00;99755.38;5027262;28;20210;-75
2022/02/16 05:21:23;;;;;;;2.90;1.73;;;;;;;3.34;100.00;99762.22;5027711;28;20402;-74
2022/02/16 05:23:49;;;;;;;1.73;1.30;;;;;;;3.33;100.00;99763.09;5023030;28;20200;-75
2022/02/16 05:26:19;;;;;;;2.37;1.57;;;;;;;3.36;100.00;99755.31;5024541;28;20243;-75
2022/02/16 05:28:46;;;;;;;2.47;1.40;;;;;;;3.35;100.00;99759.63;5011646;28;20294;-74
2022/02/16 05:31:15;;;;;;;2.77;1.50;;;;;;;3.36;100.00;99760.47;5021370;28;20229;-75
2022/02/16 05:33:43;;;;;;;6.13;1.90;;;;;;;3.35;100.00;99761.38;5024155;28;20681;-74
2022/02/16 05:36:16;;;;;;;1.73;1.40;;;;;;;3.34;100.00;99752.78;5026228;28;20196;-74
2022/02/16 05:38:43;;;;;;;3.33;1.70;;;;;;;3.34;100.00;99751.91;5016239;28;20200;-74
2022/02/16 05:41:09;;;;;;;3.37;1.57;;;;;;;3.35;100.00;99748.47;5023210;28;20288;-74
2022/02/16 05:43:38;;;;;;;2.80;1.83;;;;;;;3.35;100.00;99745.91;5018110;28;20231;-73
2022/02/16 05:46:08;;;;;;;2.93;2.00;;;;;;;3.37;100.00;99750.16;5019558;28;20201;-74
2022/02/16 05:48:36;;;;;;;12.17;6.40;;;;;;;3.37;100.00;99747.56;5022582;28;20400;-74
2022/02/16 05:51:04;;;;;;;7.13;4.60;;;;;;;3.37;100.00;99745.00;5014541;28;20314;-75
2022/02/16 05:53:30;;;;;;;8.93;5.90;;;;;;;3.39;100.00;99752.72;5009066;28;20209;-75
2022/02/16 05:55:57;;;;;;;3.33;2.57;;;;;;;3.41;100.00;99743.25;5019542;28;20602;-74
2022/02/16 05:58:24;;;;;;;2.43;2.23;;;;;;;3.43;100.00;99733.78;5020927;28;20200;-74
2022/02/16 06:00:50;;;;;;;4.30;3.90;;;;;;;3.45;100.00;99733.75;5021071;28;20804;-74
2022/02/16 06:03:44;;;;;;;7.80;5.63;;;;;;;3.45;100.00;99731.19;5004546;28;20208;-75
2022/02/16 06:06:12;;;;;;;6.37;3.90;;;;;;;3.46;100.00;99723.44;5015431;28;20197;-75
2022/02/16 06:08:39;;;;;;;8.73;4.80;;;;;;;3.47;100.00;99725.16;5019973;28;20307;-74
2022/02/16 06:11:05;;;;;;;6.33;1.97;;;;;;;3.49;100.00;99715.66;5010937;28;20882;-74
2022/02/16 06:13:34;;;;;;;5.80;2.20;;;;;;;3.50;100.00;99711.34;5018152;28;20884;-73
2022/02/16 06:16:00;;;;;;;13.43;6.23;;;;;;;3.54;100.00;99723.38;5016936;28;20236;-74
2022/02/16 06:18:27;;;;;;;7.17;3.50;;;;;;;3.55;100.00;99720.78;5020531;28;20679;-74
2022/02/16 06:20:55;;;;;;;8.43;4.00;;;;;;;3.56;100.00;99719.03;5009666;28;20231;-74
2022/02/16 06:23:23;;;;;;;9.70;4.10;;;;;;;3.58;100.00;99717.28;5020691;28;20192;-75
2022/02/16 06:25:49;;;;;;;11.10;4.40;;;;;;;3.60;100.00;99716.38;5016523;28;20298;-75
2022/02/16 06:28:17;;;;;;;17.23;5.80;;;;;;;3.61;100.00;99717.25;5037963;28;20220;-75
2022/02/16 06:30:44;;;;;;;10.47;5.07;;;;;;;3.62;100.00;99715.53;5012233;28;20217;-74
2022/02/16 06:33:16;;;;;;;10.80;4.13;;;;;;;3.62;100.00;99712.94;5026849;28;20215;-75
2022/02/16 06:35:43;;;;;;;11.23;5.33;;;;;;;3.63;100.00;99706.94;5014734;28;20204;-72
2022/02/16 06:38:12;;;;;;;9.20;4.30;;;;;;;3.65;100.00;99705.19;5017578;28;20218;-74
2022/02/16 06:40:38;;;;;;;4.20;2.43;;;;;;;3.68;100.00;99707.72;5024365;28;20280;-74
2022/02/16 06:43:08;;;;;;;8.27;4.53;;;;;;;3.69;100.00;99706.84;5020675;28;20210;-76
2022/02/16 06:45:34;;;;;;;5.80;3.40;;;;;;;3.71;100.00;99705.97;5013860;28;20743;-74
2022/02/16 06:48:02;;;;;;;5.60;3.53;;;;;;;3.73;100.00;99693.03;5017971;28;20297;-74
2022/02/16 06:50:30;;;;;;;4.20;2.90;;;;;;;3.76;100.00;99698.16;5012446;28;20282;-74
2022/02/16 06:53:03;;;;;;;4.43;3.00;;;;;;;3.80;100.00;99689.53;5015696;28;20216;-75
2022/02/16 06:55:31;;;;;;;4.03;2.70;;;;;;;3.82;100.00;99700.66;5010453;28;20225;-75
2022/02/16 06:58:00;;;;;;;5.60;2.77;;;;;;;3.87;100.00;99690.25;5030458;28;20217;-74
2022/02/16 07:00:26;;;;;;;4.07;2.00;;;;;;;3.89;100.00;99691.97;5026183;28;20212;-74
2022/02/16 07:02:53;;;;;;;4.13;1.53;;;;;;;3.91;100.00;99690.22;5018413;28;20223;-74
2022/02/16 07:05:37;;;;;;;4.10;1.87;;;;;;;3.95;100.00;99683.28;5018690;28;20299;-74
2022/02/16 07:08:08;;;;;;;4.10;2.03;;;;;;;3.98;100.00;99684.09;5031659;28;20554;-74
2022/02/16 07:10:36;;;;;;;3.27;2.10;;;;;;;4.06;100.00;99680.56;5017664;28;20235;-76
2022/02/16 07:13:03;;;;;;;4.23;1.57;;;;;;;4.08;100.00;99677.09;5015315;28;20714;-74
2022/02/16 07:15:31;;;;;;;5.93;3.30;;;;;;;4.11;100.00;99671.88;5033466;28;20323;-74
2022/02/16 07:17:58;;;;;;;2.40;1.70;;;;;;;4.16;100.00;99661.47;5021557;28;20688;-74
2022/02/16 07:20:25;;;;;;;2.03;1.80;;;;;;;4.22;100.00;99657.94;5024720;28;20710;-74
2022/02/16 07:22:51;;;;;;;1.90;1.50;;;;;;;4.24;100.00;99659.66;5014943;28;20197;-74
2022/02/16 07:25:18;;;;;;;3.00;1.60;;;;;;;4.28;100.00;99655.28;5019587;28;20208;-74
2022/02/16 07:27:46;;;;;;;3.53;2.20;;;;;;;4.28;100.00;99653.56;5020101;28;20303;-74
2022/02/16 07:30:18;;;;;;;2.87;1.70;;;;;;;4.29;100.00;99657.84;5012091;28;20224;-75
2022/02/16 07:32:45;;;;;;;2.63;1.70;;;;;;;4.33;100.00;99651.75;5021420;28;20289;-74
2022/02/16 07:35:14;;;;;;;4.13;2.40;;;;;;;4.39;100.00;99648.22;5012373;28;20282;-74
2022/02/16 07:37:44;;;;;;;3.47;2.50;;;;;;;4.43;100.00;99649.84;5024086;28;20625;-74
2022/02/16 07:40:11;;;;;;;2.30;1.83;;;;;;;4.48;100.00;99645.47;5021720;28;20223;-74
2022/02/16 07:42:38;;;;;;;2.60;1.97;;;;;;;4.52;100.00;99646.28;5018399;28;20278;-74
2022/02/16 07:45:24;;;;;;;3.00;2.10;;;;;;;4.56;100.00;99647.94;5009680;28;20219;-73
2022/02/16 07:47:53;;;;;;;12.30;6.00;;;;;;;4.60;100.00;99643.56;5013162;28;20208;-74
2022/02/16 07:50:19;;;;;;;2.90;2.20;;;;;;;4.59;100.00;99629.81;5020081;28;20227;-74
2022/02/16 07:53:05;;;;;;;3.43;2.50;;;;;;;4.59;100.00;99624.66;5012922;28;20195;-74
2022/02/16 07:55:37;;;;;;;5.97;3.30;;;;;;;4.59;100.00;99613.47;5015954;28;20210;-73
2022/02/16 07:58:06;;;;;;;7.23;6.03;;;;;;;4.59;100.00;99616.91;5018243;28;20657;-75
2022/02/16 08:00:35;;;;;;;4.07;2.90;;;;;;;4.58;100.00;99614.34;5020399;28;20311;-74
2022/02/16 08:03:10;;;;;;;4.23;3.43;;;;;;;4.58;100.00;99612.63;5009909;28;20200;-74
2022/02/16 08:05:40;;;;;;;3.07;1.93;;;;;;;4.54;100.00;99614.41;5025238;28;20290;-74
2022/02/16 08:08:09;;;;;;;4.23;2.40;;;;;;;4.59;100.00;99600.56;5017495;28;20212;-74
2022/02/16 08:10:36;;;;;;;2.87;2.20;;;;;;;4.63;100.00;99591.91;5013112;28;20441;-73
2022/02/16 08:13:03;;;;;;;2.93;2.50;;;;;;;4.68;100.00;99590.09;5016401;28;20197;-74
2022/02/16 08:15:44;;;;;;;4.83;2.73;;;;;;;4.71;100.00;99584.84;5023855;28;20203;-74
2022/02/16 08:18:13;;;;;;;5.03;3.90;;;;;;;4.74;100.00;99574.47;5016366;28;20295;-74
2022/02/16 08:20:41;;;;;;;2.90;2.40;;;;;;;4.77;100.00;99566.66;5024918;28;20708;-74
2022/02/16 08:23:18;;;;;;;3.53;2.53;;;;;;;4.82;100.00;99554.50;5027770;28;20684;-75
2022/02/16 08:25:46;;;;;;;4.13;2.77;;;;;;;4.85;100.00;99557.00;5019990;28;20208;-75
2022/02/16 08:28:15;;;;;;;4.07;2.80;;;;;;;4.88;100.00;99545.78;5021731;28;20200;-75
2022/02/16 08:30:41;;;;;;;2.30;2.10;;;;;;;4.86;100.00;99543.22;5030863;28;20227;-76
2022/02/16 08:33:15;;;;;;;2.27;2.07;;;;;;;4.88;100.00;99535.44;5019736;28;20589;-74
2022/02/16 08:35:56;;;;;;;2.87;2.03;;;;;;;4.87;100.00;99533.72;5021737;28;20213;-74
2022/02/16 08:38:23;;;;;;;3.50;2.10;;;;;;;4.91;100.00;99522.47;5017324;28;20204;-73
2022/02/16 08:40:50;;;;;;;2.60;2.30;;;;;;;4.95;100.00;99526.69;5014715;28;20223;-73
2022/02/16 08:43:16;;;;;;;3.83;3.03;;;;;;;4.96;100.00;99514.63;5021402;28;20220;-74
2022/02/16 08:45:42;;;;;;;2.40;2.20;;;;;;;5.00;100.00;99517.13;5023089;28;20196;-76
2022/02/16 08:48:09;;;;;;;2.13;1.93;;;;;;;5.05;100.00;99506.69;5015235;28;20762;-75
2022/02/16 08:50:37;;;;;;;2.40;1.90;;;;;;;5.19;100.00;99511.53;5021760;28;20230;-73
2022/02/16 08:53:04;;;;;;;2.90;2.23;;;;;;;5.34;100.00;99502.63;5017430;28;20197;-74
2022/02/16 08:55:30;;;;;;;2.53;2.20;;;;;;;5.43;100.00;99500.66;5018520;28;20206;-74
2022/02/16 08:57:57;;;;;;;3.07;2.00;;;;;;;5.50;100.00;99501.38;5019290;28;20220;-76
2022/02/16 09:00:23;;;;;;;4.37;2.57;;;;;;;5.66;100.00;99504.44;5024426;28;20219;-77
2022/02/16 09:02:51;;;;;;;2.60;1.67;;;;;;;5.73;100.00;99503.41;5012553;28;20207;-77
2022/02/16 09:05:18;;;;;;;2.13;1.93;;;;;;;5.75;100.00;99493.91;5017827;28;20197;-74
2022/02/16 09:07:46;;;;;;;2.60;2.33;;;;;;;5.77;100.00;99486.94;5017366;28;20644;-75
2022/02/16 09:10:13;;;;;;;2.27;2.07;;;;;;;5.78;100.00;99475.69;5026543;28;20220;-75
2022/02/16 09:12:40;;;;;;;2.10;1.83;;;;;;;5.75;100.00;99478.38;5017427;28;20214;-74
2022/02/16 09:15:07;;;;;;;2.83;2.23;;;;;;;5.70;100.00;99467.28;5014417;28;20193;-74
2022/02/16 09:17:34;;;;;;;2.40;1.93;;;;;;;5.74;100.00;99457.72;5020222;28;20693;-75
2022/02/16 09:20:00;;;;;;;2.47;2.03;;;;;;;5.84;100.00;99448.81;5028062;28;20274;-75
2022/02/16 09:22:27;;;;;;;2.13;1.93;;;;;;;5.92;100.00;99446.06;5019147;28;20771;-75
2022/02/16 09:24:55;;;;;;;2.13;1.93;;;;;;;5.95;100.00;99440.81;5024634;28;21558;-74
2022/02/16 09:27:23;;;;;;;4.20;3.40;;;;;;;6.03;100.00;99439.75;5020231;28;20215;-74
2022/02/16 09:29:49;;;;;;;3.57;3.07;;;;;;;6.12;100.00;99438.66;5031533;28;20230;-74
2022/02/16 09:32:17;;;;;;;6.27;3.53;;;;;;;6.21;100.00;99425.47;5020617;28;20200;-74
2022/02/16 09:34:45;;;;;;;2.73;2.50;;;;;;;6.25;100.00;99437.41;5020184;28;20570;-75
2022/02/16 09:37:11;;;;;;;2.63;2.20;;;;;;;6.34;100.00;99428.53;5027321;28;20214;-75
2022/02/16 09:39:38;;;;;;;2.30;1.63;;;;;;;6.27;100.00;99427.03;5021744;28;20224;-75
2022/02/16 09:42:07;;;;;;;1.90;1.70;;;;;;;6.24;100.00;99416.75;5019546;28;20250;-73
2022/02/16 09:44:40;;;;;;;3.40;2.23;;;;;;;6.34;100.00;99412.16;5023765;28;20211;-75
2022/02/16 09:47:08;;;;;;;2.07;1.60;;;;;;;6.34;100.00;99407.84;5025757;28;20199;-75
2022/02/16 09:49:35;;;;;;;2.80;1.70;;;;;;;6.41;100.00;99398.16;5021032;28;20217;-76
2022/02/16 09:52:02;;;;;;;1.90;1.73;;;;;;;6.47;100.00;99397.97;5018658;28;20201;-75
2022/02/16 09:54:29;;;;;;;1.93;1.83;;;;;;;6.49;100.00;99398.81;5015243;28;20202;-77
2022/02/16 09:56:55;;;;;;;1.80;1.70;;;;;;;6.47;100.00;99405.72;5011846;28;20215;-74
2022/02/16 09:59:23;;;;;;;2.80;2.10;;;;;;;6.44;100.00;99396.31;5010502;28;20226;-73
2022/02/16 10:01:56;;;;;;;2.60;2.40;;;;;;;6.47;100.00;99394.53;5017408;28;20216;-76
2022/02/16 10:04:23;;;;;;;2.40;2.20;;;;;;;6.52;100.00;99388.31;5019254;28;20207;-75
2022/02/16 10:06:50;;;;;;;2.23;2.03;;;;;;;6.54;100.00;99377.94;5021986;28;20570;-74
2022/02/16 10:09:25;;;;;;;2.57;1.90;;;;;;;6.51;100.00;99380.59;5016280;28;20212;-75
2022/02/16 10:11:54;;;;;;;3.50;2.23;;;;;;;6.49;100.00;99369.44;5014460;28;20697;-74
2022/02/16 10:14:24;;;;;;;2.53;2.00;;;;;;;6.59;100.00;99351.00;5012909;28;20213;-74
2022/02/16 10:16:50;;;;;;;2.40;2.20;;;;;;;6.75;100.00;99346.19;5015698;28;20205;-75
2022/02/16 10:19:17;;;;;;;1.93;1.83;;;;;;;6.81;100.00;99335.66;5012149;28;20583;-75
2022/02/16 10:22:05;;;;;;;2.60;2.27;;;;;;;6.90;100.00;99326.75;5016799;28;20764;-75
2022/02/16 10:24:32;;;;;;;3.37;2.33;;;;;;;6.85;100.00;99322.63;5024414;28;20229;-74
2022/02/16 10:26:59;;;;;;;2.60;2.40;;;;;;;6.90;100.00;99313.78;5019835;28;20201;-74
2022/02/16 10:29:30;;;;;;;2.10;1.90;;;;;;;6.93;100.00;99316.28;5014436;28;20243;-75
2022/02/16 10:31:58;;;;;;;2.87;2.20;;;;;;;6.90;100.00;99300.84;5017481;28;20229;-76
2022/02/16 10:34:54;;;;;;;4.07;3.30;;;;;;;6.93;100.00;99303.34;5035341;28;20205;-75
2022/02/16 10:37:22;;;;;;;3.10;2.80;;;;;;;7.07;100.00;99299.44;5009572;28;21744;-75
2022/02/16 10:40:06;;;;;;;4.33;3.93;;;;;;;7.22;100.00;99298.94;5018621;28;20223;-75
2022/02/16 10:42:33;;;;;;;3.37;3.07;;;;;;;7.19;100.00;99296.44;5025183;28;20193;-75
2022/02/16 10:45:11;;;;;;;5.60;5.10;;;;;;;7.25;100.00;99290.22;5017685;28;20292;-75
2022/02/16 10:47:52;;;;;;;4.67;4.27;;;;;;;7.19;100.00;99291.25;5016966;28;20214;-76
2022/02/16 10:50:19;;;;;;;2.73;2.50;;;;;;;7.15;100.00;99285.31;5017311;28;20753;-75
2022/02/16 10:52:50;;;;;;;4.80;4.30;;;;;;;7.12;100.00;99272.47;5016524;28;20497;-74
2022/02/16 10:55:17;;;;;;;3.27;2.97;;;;;;;7.12;100.00;99266.44;5012161;28;20292;-75
2022/02/16 10:57:45;;;;;;;2.83;2.60;;;;;;;7.06;100.00;99279.63;5016275;28;20564;-74
2022/02/16 11:00:14;;;;;;;2.57;2.37;;;;;;;7.07;100.00;99268.31;5018498;28;20244;-76
2022/02/16 11:02:46;;;;;;;3.00;2.53;;;;;;;7.05;100.00;99259.75;5023710;28;20209;-75
2022/02/16 11:05:12;;;;;;;3.27;2.97;;;;;;;7.05;100.00;99252.00;5016383;28;20208;-76
2022/02/16 11:07:39;;;;;;;3.93;2.80;;;;;;;7.00;100.00;99250.41;5014594;28;20212;-75
2022/02/16 11:10:07;;;;;;;2.90;2.67;;;;;;;6.94;100.00;99242.81;5013892;28;20224;-75
2022/02/16 11:12:33;;;;;;;2.43;2.23;;;;;;;6.85;100.00;99235.34;5016774;28;20211;-75
2022/02/16 11:15:02;;;;;;;2.50;2.30;;;;;;;6.81;100.00;99231.19;5020241;28;20198;-73
2022/02/16 11:17:30;;;;;;;2.80;2.40;;;;;;;6.74;100.00;99222.75;5019894;28;20258;-78
2022/02/16 11:20:18;;;;;;;3.23;2.40;;;;;;;6.68;100.00;99211.75;5018408;28;20228;-76
2022/02/16 11:22:50;;;;;;;2.60;2.40;;;;;;;6.65;100.00;99202.34;5022797;28;20257;-75
2022/02/16 11:25:29;;;;;;;2.57;2.37;;;;;;;6.66;100.00;99203.19;5027984;28;20661;-75
2022/02/16 11:27:55;;;;;;;2.70;2.23;;;;;;;6.61;100.00;99195.56;5015355;28;20678;-75
2022/02/16 11:30:33;;;;;;;2.87;2.27;;;;;;;6.67;100.00;99185.00;5017094;28;20259;-75
2022/02/16 11:33:17;;;;;;;2.93;2.63;;;;;;;6.58;100.00;99170.63;5021509;28;20210;-76
2022/02/16 11:35:52;;;;;;;2.87;2.67;;;;;;;6.57;100.00;99162.91;5019344;28;20743;-75
2022/02/16 11:38:21;;;;;;;2.20;2.00;;;;;;;6.45;100.00;99161.53;5022989;28;20197;-75
2022/02/16 11:40:50;;;;;;;2.40;2.20;;;;;;;6.42;100.00;99153.88;5019622;28;20229;-75
2022/02/16 11:43:18;;;;;;;2.70;2.43;;;;;;;6.39;100.00;99141.06;5025062;28;20688;-74